createdAt,value
2023-02-23T00:03:01.621Z,99382.44
2023-02-23T00:07:54.203Z,99384.13
2023-02-23T00:12:45.965Z,99395.31
2023-02-23T00:17:37.767Z,99406.16
2023-02-23T00:22:29.435Z,99404.94
2023-02-23T00:27:21.289Z,99404.88
2023-02-23T00:32:13.317Z,99404.44
2023-02-23T00:37:05.431Z,99398.00
2023-02-23T00:42:03.869Z,99402.09
2023-02-23T00:46:55.629Z,99402.09
2023-02-23T00:51:47.616Z,99403.69
2023-02-23T00:56:39.912Z,99409.88
2023-02-23T01:01:31.585Z,99411.75
2023-02-23T01:06:23.596Z,99402.84
2023-02-23T01:11:18.884Z,99410.25
2023-02-23T01:16:13.370Z,99408.78
2023-02-23T01:21:05.970Z,99423.03
2023-02-23T01:25:57.757Z,99425.81
2023-02-23T01:30:49.899Z,99434.72
2023-02-23T01:35:41.928Z,99432.41
2023-02-23T01:40:37.172Z,99433.31
2023-02-23T01:45:35.927Z,99428.31
2023-02-23T01:50:33.351Z,99428.31
2023-02-23T01:55:26.581Z,99446.38
2023-02-23T02:00:20.366Z,99448.59
2023-02-23T02:05:14.377Z,99450.91
2023-02-23T02:10:12.872Z,99448.03
2023-02-23T02:15:07.327Z,99452.59
2023-02-23T02:20:12.716Z,99438.13
2023-02-23T02:25:31.821Z,99451.66
2023-02-23T02:30:29.580Z,99449.34
2023-02-23T02:35:28.146Z,99444.16
2023-02-23T02:40:22.612Z,99442.66
2023-02-23T02:45:33.902Z,99459.16
2023-02-23T02:50:51.759Z,99464.47
2023-02-23T02:55:48.334Z,99463.34
2023-02-23T03:01:06.009Z,99468.06
2023-02-23T03:06:16.194Z,99471.75
2023-02-23T03:11:33.073Z,99473.91
2023-02-23T03:17:18.510Z,99468.16
2023-02-23T03:22:42.256Z,99475.75
2023-02-23T03:28:10.822Z,99478.44
2023-02-23T03:33:30.467Z,99476.94
2023-02-23T03:38:55.341Z,99483.16
2023-02-23T03:44:14.507Z,99494.94
2023-02-23T03:49:29.994Z,99498.16
2023-02-23T03:54:50.144Z,99506.41
2023-02-23T04:00:11.266Z,99506.97
2023-02-23T04:05:26.911Z,99509.16
2023-02-23T04:10:37.453Z,99530.19
2023-02-23T04:15:32.256Z,99547.47
2023-02-23T04:20:25.182Z,99551.56
2023-02-23T04:25:18.437Z,99551.06
2023-02-23T04:30:11.708Z,99562.06
2023-02-23T04:35:03.786Z,99566.47
2023-02-23T04:39:55.463Z,99576.91
2023-02-23T04:44:47.251Z,99587.53
2023-02-23T04:49:38.920Z,99586.41
2023-02-23T04:54:30.909Z,99592.47
2023-02-23T04:59:22.558Z,99603.75
2023-02-23T05:04:14.388Z,99598.25
2023-02-23T05:09:07.045Z,99598.09
2023-02-23T05:13:58.904Z,99604.84
2023-02-23T05:18:50.675Z,99606.19
2023-02-23T05:23:42.391Z,99620.31
2023-02-23T05:28:35.252Z,99627.38
2023-02-23T05:33:27.077Z,99627.88
2023-02-23T05:38:20.083Z,99633.94
2023-02-23T05:43:11.712Z,99639.19
2023-02-23T05:48:03.357Z,99636.34
2023-02-23T05:52:55.126Z,99635.66
2023-02-23T05:57:46.699Z,99633.34
2023-02-23T06:02:38.620Z,99643.41
2023-02-23T06:07:30.249Z,99643.56
2023-02-23T06:12:23.375Z,99640.75
2023-02-23T06:17:14.998Z,99657.34
2023-02-23T06:22:06.651Z,99656.16
2023-02-23T06:26:58.385Z,99659.03
2023-02-23T06:31:50.149Z,99667.75
2023-02-23T06:36:41.829Z,99681.66
2023-02-23T06:41:33.683Z,99683.81
2023-02-23T06:46:25.411Z,99693.19
2023-02-23T06:51:17.423Z,99691.03
2023-02-23T06:56:10.592Z,99712.78
2023-02-23T07:01:03.960Z,99723.81
2023-02-23T07:05:55.583Z,99727.00
2023-02-23T07:10:47.418Z,99741.72
2023-02-23T07:15:43.065Z,99747.56
2023-02-23T07:20:35.303Z,99752.91
2023-02-23T07:25:28.454Z,99753.22
2023-02-23T07:30:24.710Z,99756.06
2023-02-23T07:35:17.040Z,99760.59
2023-02-23T07:40:10.152Z,99778.47
2023-02-23T07:45:02.100Z,99775.81
2023-02-23T07:49:55.510Z,99793.88
2023-02-23T07:54:47.185Z,99802.13
2023-02-23T07:59:39.586Z,99811.66
2023-02-23T08:04:31.295Z,99821.53
2023-02-23T08:09:22.954Z,99812.69
2023-02-23T08:14:14.990Z,99829.63
2023-02-23T08:19:06.826Z,99835.38
2023-02-23T08:23:59.016Z,99835.63
2023-02-23T08:28:50.967Z,99834.94
2023-02-23T08:33:42.618Z,99828.84
2023-02-23T08:38:36.679Z,99829.94
2023-02-23T08:43:28.838Z,99837.75
2023-02-23T08:48:22.895Z,99844.94
2023-02-23T08:53:14.876Z,99846.06
2023-02-23T08:58:10.766Z,99846.94
2023-02-23T09:03:02.900Z,99839.56
2023-02-23T09:07:54.518Z,99838.03
2023-02-23T09:12:46.179Z,99838.84
2023-02-23T09:17:38.671Z,99852.50
2023-02-23T09:22:30.342Z,99851.06
2023-02-23T09:27:22.001Z,99841.59
2023-02-23T09:32:13.768Z,99853.63
2023-02-23T09:37:05.532Z,99867.25
2023-02-23T09:42:36.023Z,99864.75
2023-02-23T09:47:40.618Z,99870.78
2023-02-23T09:52:42.607Z,99872.81
2023-02-23T09:57:39.752Z,99879.88
2023-02-23T10:02:39.843Z,99881.53
2023-02-23T10:07:50.379Z,99870.19
2023-02-23T10:12:50.932Z,99860.91
2023-02-23T10:17:54.552Z,99864.41
2023-02-23T10:22:49.348Z,99867.06
2023-02-23T10:27:51.025Z,99867.84
2023-02-23T10:33:10.471Z,99872.59
2023-02-23T10:38:02.813Z,99873.50
2023-02-23T10:42:55.808Z,99868.44
2023-02-23T10:47:49.587Z,99864.09
2023-02-23T10:52:47.060Z,99876.69
2023-02-23T10:57:40.260Z,99867.28
2023-02-23T11:02:32.553Z,99875.50
2023-02-23T11:07:29.931Z,99878.72
2023-02-23T11:12:39.940Z,99881.31
2023-02-23T11:17:37.770Z,99877.00
2023-02-23T11:22:35.856Z,99862.41
2023-02-23T11:27:28.210Z,99872.22
2023-02-23T11:32:30.656Z,99879.28
2023-02-23T11:37:23.480Z,99881.25
2023-02-23T11:42:21.170Z,99882.44
2023-02-23T11:47:24.050Z,99874.72
2023-02-23T11:52:18.920Z,99865.63
2023-02-23T11:57:20.026Z,99862.91
2023-02-23T12:02:23.159Z,99873.22
2023-02-23T12:07:38.875Z,99879.53
2023-02-23T12:12:36.566Z,99870.94
2023-02-23T12:17:36.936Z,99869.72
2023-02-23T12:22:59.080Z,99863.22
2023-02-23T12:28:00.094Z,99859.97
2023-02-23T12:33:02.360Z,99850.59
2023-02-23T12:38:06.820Z,99848.06
2023-02-23T12:43:36.310Z,99845.47
2023-02-23T12:49:00.514Z,99845.50
2023-02-23T12:53:59.397Z,99850.84
2023-02-23T12:58:55.699Z,99849.38
2023-02-23T13:03:50.384Z,99842.94
2023-02-23T13:08:58.652Z,99839.19
2023-02-23T13:14:30.586Z,99834.09
2023-02-23T13:19:29.943Z,99838.09
2023-02-23T13:24:27.753Z,99828.06
2023-02-23T13:29:37.816Z,99834.03
2023-02-23T13:34:43.388Z,99825.22
2023-02-23T13:39:54.754Z,99817.59
2023-02-23T13:44:58.611Z,99818.69
2023-02-23T13:50:35.605Z,99816.97
2023-02-23T13:55:29.428Z,99834.31
2023-02-23T14:00:24.815Z,99828.38
2023-02-23T14:05:25.592Z,99821.09
2023-02-23T14:10:27.304Z,99814.41
2023-02-23T14:15:25.371Z,99817.50
2023-02-23T14:20:40.134Z,99817.94
2023-02-23T14:25:34.744Z,99811.28
2023-02-23T14:30:28.550Z,99819.19
2023-02-23T14:35:32.483Z,99819.81
2023-02-23T14:40:31.985Z,99809.41
2023-02-23T14:45:28.920Z,99806.75
2023-02-23T14:50:29.549Z,99807.63
2023-02-23T14:55:27.983Z,99796.38
2023-02-23T15:00:39.155Z,99800.31
2023-02-23T15:05:41.930Z,99786.59
2023-02-23T15:10:37.300Z,99797.19
2023-02-23T15:15:31.072Z,99781.56
2023-02-23T15:20:32.624Z,99783.47
2023-02-23T15:25:33.813Z,99785.97
2023-02-23T15:30:31.251Z,99778.69
2023-02-23T15:35:23.062Z,99783.28
2023-02-23T15:40:18.057Z,99793.03
2023-02-23T15:45:30.432Z,99790.97
2023-02-23T15:50:36.751Z,99784.72
2023-02-23T15:55:36.239Z,99782.41
2023-02-23T16:00:55.512Z,99783.41
2023-02-23T16:05:59.752Z,99782.06
2023-02-23T16:11:00.876Z,99784.03
2023-02-23T16:15:54.964Z,99780.25
2023-02-23T16:20:58.691Z,99779.81
2023-02-23T16:25:54.553Z,99784.97
2023-02-23T16:31:16.893Z,99781.63
2023-02-23T16:36:38.716Z,99771.63
2023-02-23T16:41:32.988Z,99771.38
2023-02-23T16:46:27.848Z,99777.94
2023-02-23T16:51:23.649Z,99765.63
2023-02-23T16:56:19.374Z,99765.81
2023-02-23T17:01:18.713Z,99773.16
2023-02-23T17:06:15.546Z,99784.50
2023-02-23T17:11:08.304Z,99772.38
2023-02-23T17:16:03.684Z,99782.03
2023-02-23T17:20:57.599Z,99766.72
2023-02-23T17:25:49.334Z,99769.31
2023-02-23T17:30:42.726Z,99779.00
2023-02-23T17:35:37.568Z,99772.06
2023-02-23T17:40:29.577Z,99767.75
2023-02-23T17:45:21.381Z,99771.03
2023-02-23T17:50:13.116Z,99769.28
2023-02-23T17:55:05.116Z,99771.81
2023-02-23T17:59:57.706Z,99782.88
2023-02-23T18:04:50.920Z,99769.22
2023-02-23T18:09:42.955Z,99780.44
2023-02-23T18:14:35.026Z,99782.56
2023-02-23T18:19:27.273Z,99781.81
2023-02-23T18:24:18.964Z,99778.22
2023-02-23T18:29:10.695Z,99773.25
2023-02-23T18:34:02.434Z,99772.91
2023-02-23T18:38:55.756Z,99780.84
2023-02-23T18:43:47.389Z,99770.53
2023-02-23T18:48:41.467Z,99772.16
2023-02-23T18:53:37.459Z,99774.81
2023-02-23T18:58:29.139Z,99790.25
2023-02-23T19:03:20.829Z,99770.88
2023-02-23T19:08:15.954Z,99767.34
2023-02-23T19:13:09.039Z,99762.81
2023-02-23T19:18:00.788Z,99757.97
2023-02-23T19:22:52.514Z,99765.88
2023-02-23T19:27:44.339Z,99765.06
2023-02-23T19:32:39.414Z,99743.47
2023-02-23T19:37:31.341Z,99755.22
2023-02-23T19:42:23.014Z,99742.66
2023-02-23T19:47:14.690Z,99730.41
2023-02-23T19:52:06.343Z,99747.75
2023-02-23T19:56:58.094Z,99737.56
2023-02-23T20:01:51.512Z,99734.38
2023-02-23T20:06:47.045Z,99743.97
2023-02-23T20:11:39.479Z,99739.63
2023-02-23T20:16:31.723Z,99736.44
2023-02-23T20:21:26.263Z,99726.75
2023-02-23T20:26:22.239Z,99708.97
2023-02-23T20:31:16.568Z,99721.19
2023-02-23T20:36:08.541Z,99724.72
2023-02-23T20:41:03.664Z,99741.28
2023-02-23T20:45:55.719Z,99738.59
2023-02-23T20:50:47.375Z,99746.31
2023-02-23T20:55:41.619Z,99742.97
2023-02-23T21:00:33.878Z,99744.31
2023-02-23T21:05:27.289Z,99742.63
2023-02-23T21:10:20.534Z,99728.22
2023-02-23T21:15:14.923Z,99720.34
2023-02-23T21:20:11.097Z,99715.66
2023-02-23T21:25:02.762Z,99710.81
2023-02-23T21:29:55.526Z,99703.06
2023-02-23T21:34:47.181Z,99697.34
2023-02-23T21:39:41.016Z,99684.56
2023-02-23T21:44:33.444Z,99686.06
2023-02-23T21:49:25.327Z,99669.78
2023-02-23T21:54:18.619Z,99658.06
2023-02-23T21:59:10.899Z,99655.84
2023-02-23T22:04:05.285Z,99651.66
2023-02-23T22:08:57.566Z,99650.94
2023-02-23T22:13:54.533Z,99664.31
2023-02-23T22:18:46.781Z,99653.22
2023-02-23T22:23:39.948Z,99647.84
2023-02-23T22:28:33.172Z,99655.84
2023-02-23T22:33:25.506Z,99639.28
2023-02-23T22:38:20.134Z,99640.72
2023-02-23T22:43:12.125Z,99634.53
2023-02-23T22:48:06.391Z,99620.28
2023-02-23T22:52:58.045Z,99617.44
2023-02-23T22:57:49.719Z,99613.59
2023-02-23T23:02:42.374Z,99598.81
2023-02-23T23:07:34.169Z,99592.53
2023-02-23T23:12:29.008Z,99595.03
2023-02-23T23:17:20.797Z,99587.97
2023-02-23T23:22:13.666Z,99585.94
2023-02-23T23:27:08.397Z,99562.63
2023-02-23T23:32:02.349Z,99561.78
2023-02-23T23:36:55.582Z,99545.84
2023-02-23T23:41:49.033Z,99525.56
2023-02-23T23:46:45.624Z,99522.53
2023-02-23T23:51:46.066Z,99508.41
2023-02-23T23:56:38.002Z,99507.69
